createdAt,value
2023-09-27T00:00:21.902Z,22.74
2023-09-27T00:02:48.435Z,22.67
2023-09-27T00:05:15.312Z,22.65
2023-09-27T00:07:42.673Z,22.68
2023-09-27T00:10:10.897Z,22.65
2023-09-27T00:12:38.400Z,22.70
2023-09-27T00:15:07.126Z,22.71
2023-09-27T00:17:33.670Z,22.66
2023-09-27T00:20:03.877Z,22.65
2023-09-27T00:22:30.366Z,22.67
2023-09-27T00:24:57.972Z,22.66
2023-09-27T00:27:25.675Z,22.68
2023-09-27T00:29:52.739Z,22.66
2023-09-27T00:32:19.705Z,22.66
2023-09-27T00:34:46.207Z,22.67
2023-09-27T00:37:12.716Z,22.68
2023-09-27T00:39:43.033Z,22.69
2023-09-27T00:42:09.567Z,22.70
2023-09-27T00:44:36.214Z,22.67
2023-09-27T00:47:04.985Z,22.67
2023-09-27T00:49:32.096Z,22.69
2023-09-27T00:51:59.364Z,22.65
2023-09-27T00:54:26.770Z,22.67
2023-09-27T00:56:53.867Z,22.64
2023-09-27T00:59:20.677Z,22.65
2023-09-27T01:01:47.542Z,22.65
2023-09-27T01:04:14.922Z,22.66
2023-09-27T01:06:42.840Z,22.62
2023-09-27T01:09:09.295Z,22.63
2023-09-27T01:11:35.821Z,22.63
2023-09-27T01:14:02.345Z,22.64
2023-09-27T01:16:28.884Z,22.61
2023-09-27T01:18:55.959Z,22.62
2023-09-27T01:21:22.496Z,22.60
2023-09-27T01:23:51.327Z,22.59
2023-09-27T01:26:19.599Z,22.61
2023-09-27T01:28:47.541Z,22.66
2023-09-27T01:31:14.368Z,22.65
2023-09-27T01:33:41.479Z,22.62
2023-09-27T01:36:08.773Z,22.64
2023-09-27T01:38:35.509Z,22.67
2023-09-27T01:41:02.278Z,22.64
2023-09-27T01:43:29.163Z,22.65
2023-09-27T01:45:55.758Z,22.63
2023-09-27T01:48:23.045Z,22.62
2023-09-27T01:50:49.984Z,22.65
2023-09-27T01:53:16.561Z,22.64
2023-09-27T01:55:43.054Z,22.63
2023-09-27T01:58:09.550Z,22.61
2023-09-27T02:00:37.167Z,22.73
2023-09-27T02:03:04.412Z,22.69
2023-09-27T02:05:31.869Z,22.70
2023-09-27T02:07:59.032Z,22.72
2023-09-27T02:10:25.963Z,22.69
2023-09-27T02:12:52.533Z,22.72
2023-09-27T02:15:19.254Z,22.69
2023-09-27T02:17:45.919Z,22.67
2023-09-27T02:20:19.040Z,22.68
2023-09-27T02:22:48.827Z,22.66
2023-09-27T02:25:15.958Z,22.66
2023-09-27T02:27:43.441Z,22.66
2023-09-27T02:30:15.023Z,22.67
2023-09-27T02:32:43.075Z,22.65
2023-09-27T02:35:10.812Z,22.65
2023-09-27T02:37:39.288Z,22.64
2023-09-27T02:40:15.668Z,22.64
2023-09-27T02:42:45.435Z,22.65
2023-09-27T02:45:13.122Z,22.63
2023-09-27T02:47:41.134Z,22.64
2023-09-27T02:50:11.863Z,22.65
2023-09-27T02:52:41.552Z,22.63
2023-09-27T02:55:11.556Z,22.62
2023-09-27T02:57:38.252Z,22.64
2023-09-27T03:00:07.316Z,22.60
2023-09-27T03:02:34.669Z,22.63
2023-09-27T03:05:01.603Z,22.63
2023-09-27T03:07:28.238Z,22.65
2023-09-27T03:09:54.737Z,22.64
2023-09-27T03:12:21.198Z,22.64
2023-09-27T03:14:48.076Z,22.65
2023-09-27T03:17:14.580Z,22.64
2023-09-27T03:19:41.052Z,22.64
2023-09-27T03:22:08.257Z,22.59
2023-09-27T03:24:35.405Z,22.62
2023-09-27T03:27:04.109Z,22.62
2023-09-27T03:29:31.655Z,22.60
2023-09-27T03:31:58.281Z,22.59
2023-09-27T03:34:24.800Z,22.61
2023-09-27T03:36:57.216Z,22.60
2023-09-27T03:39:23.960Z,22.59
2023-09-27T03:41:51.840Z,22.59
2023-09-27T03:44:18.508Z,22.59
2023-09-27T03:46:45.017Z,22.58
2023-09-27T03:49:14.021Z,22.57
2023-09-27T03:51:40.599Z,22.57
2023-09-27T03:54:07.300Z,22.58
2023-09-27T03:56:33.820Z,22.56
2023-09-27T03:59:00.481Z,22.57
2023-09-27T04:01:27.242Z,22.58
2023-09-27T04:03:53.828Z,22.55
2023-09-27T04:06:21.046Z,22.58
2023-09-27T04:08:47.555Z,22.58
2023-09-27T04:11:14.133Z,22.58
2023-09-27T04:13:41.161Z,22.57
2023-09-27T04:16:07.688Z,22.56
2023-09-27T04:18:34.352Z,22.56
2023-09-27T04:21:10.400Z,22.55
2023-09-27T04:23:37.526Z,22.57
2023-09-27T04:26:07.632Z,22.59
2023-09-27T04:28:34.505Z,22.55
2023-09-27T04:31:01.618Z,22.54
2023-09-27T04:33:28.276Z,22.55
2023-09-27T04:35:54.826Z,22.55
2023-09-27T04:38:22.297Z,22.54
2023-09-27T04:40:48.929Z,22.55
2023-09-27T04:43:15.376Z,22.52
2023-09-27T04:45:41.950Z,22.52
2023-09-27T04:48:08.489Z,22.53
2023-09-27T04:50:35.833Z,22.52
2023-09-27T04:53:02.487Z,22.52
2023-09-27T04:55:29.523Z,22.49
2023-09-27T04:57:56.005Z,22.51
2023-09-27T05:00:23.285Z,22.51
2023-09-27T05:02:51.323Z,22.50
2023-09-27T05:05:18.024Z,22.50
2023-09-27T05:07:44.954Z,22.47
2023-09-27T05:10:12.108Z,22.50
2023-09-27T05:12:39.863Z,22.49
2023-09-27T05:15:08.658Z,22.48
2023-09-27T05:17:35.265Z,22.52
2023-09-27T05:20:02.121Z,22.49
2023-09-27T05:22:28.594Z,22.50
2023-09-27T05:24:55.069Z,22.50
2023-09-27T05:27:22.000Z,22.50
2023-09-27T05:29:48.701Z,22.49
2023-09-27T05:32:15.222Z,22.51
2023-09-27T05:34:41.739Z,22.52
2023-09-27T05:37:08.207Z,22.49
2023-09-27T05:39:34.690Z,22.49
2023-09-27T05:42:01.164Z,22.51
2023-09-27T05:44:27.778Z,22.50
2023-09-27T05:46:55.059Z,22.49
2023-09-27T05:49:21.861Z,22.50
2023-09-27T05:51:48.367Z,22.49
2023-09-27T05:54:14.900Z,22.48
2023-09-27T05:56:41.478Z,22.49
2023-09-27T05:59:10.256Z,22.47
2023-09-27T06:01:37.049Z,22.49
2023-09-27T06:04:04.106Z,22.57
2023-09-27T06:06:30.902Z,22.56
2023-09-27T06:08:57.490Z,22.55
2023-09-27T06:11:24.069Z,22.54
2023-09-27T06:13:50.656Z,22.53
2023-09-27T06:16:21.069Z,22.53
2023-09-27T06:18:48.139Z,22.53
2023-09-27T06:21:15.056Z,22.52
2023-09-27T06:23:42.081Z,22.51
2023-09-27T06:26:08.925Z,22.50
2023-09-27T06:28:39.105Z,22.51
2023-09-27T06:31:07.338Z,22.50
2023-09-27T06:33:35.628Z,22.50
2023-09-27T06:36:02.423Z,22.51
2023-09-27T06:38:28.938Z,22.53
2023-09-27T06:40:55.994Z,22.52
2023-09-27T06:43:22.856Z,22.50
2023-09-27T06:45:50.299Z,22.50
2023-09-27T06:48:19.705Z,22.53
2023-09-27T06:50:47.997Z,22.52
2023-09-27T06:53:23.519Z,22.52
2023-09-27T06:55:54.813Z,22.53
2023-09-27T06:58:25.947Z,22.55
2023-09-27T07:00:53.850Z,22.52
2023-09-27T07:03:26.039Z,22.51
2023-09-27T07:05:53.210Z,22.51
2023-09-27T07:08:19.968Z,22.53
2023-09-27T07:10:46.601Z,22.54
2023-09-27T07:13:13.085Z,22.53
2023-09-27T07:15:39.862Z,22.54
2023-09-27T07:18:07.310Z,22.53
2023-09-27T07:20:35.576Z,22.48
2023-09-27T07:23:05.520Z,22.42
2023-09-27T07:25:35.645Z,22.39
2023-09-27T07:28:06.508Z,22.42
2023-09-27T07:30:36.222Z,22.41
2023-09-27T07:33:10.285Z,22.44
2023-09-27T07:35:42.916Z,22.45
2023-09-27T07:38:11.699Z,22.45
2023-09-27T07:40:38.213Z,22.43
2023-09-27T07:43:04.769Z,22.46
2023-09-27T07:45:33.517Z,22.48
2023-09-27T07:48:00.657Z,22.48
2023-09-27T07:50:29.621Z,22.50
2023-09-27T07:52:56.599Z,22.49
2023-09-27T07:55:23.199Z,22.48
2023-09-27T07:57:50.871Z,22.46
2023-09-27T08:00:20.092Z,22.46
2023-09-27T08:02:47.284Z,22.47
2023-09-27T08:05:17.663Z,22.46
2023-09-27T08:07:48.242Z,22.48
2023-09-27T08:12:44.879Z,22.47
2023-09-27T08:15:13.706Z,22.47
2023-09-27T08:17:40.782Z,22.48
2023-09-27T08:20:10.811Z,22.48
2023-09-27T08:22:40.318Z,22.51
2023-09-27T08:25:10.319Z,22.48
2023-09-27T08:27:37.875Z,22.48
2023-09-27T08:30:07.156Z,22.47
2023-09-27T08:32:34.896Z,22.46
2023-09-27T08:35:03.638Z,22.43
2023-09-27T08:37:30.225Z,22.45
2023-09-27T08:39:57.076Z,22.45
2023-09-27T08:42:25.070Z,22.44
2023-09-27T08:44:54.102Z,22.45
2023-09-27T08:47:21.093Z,22.45
2023-09-27T08:49:51.243Z,22.46
2023-09-27T08:52:18.749Z,22.43
2023-09-27T08:54:45.262Z,22.43
2023-09-27T08:57:12.993Z,22.41
2023-09-27T08:59:40.492Z,22.42
2023-09-27T09:02:07.995Z,22.43
2023-09-27T09:04:34.646Z,22.42
2023-09-27T09:07:03.890Z,22.41
2023-09-27T09:09:31.753Z,22.42
2023-09-27T09:12:01.944Z,22.42
2023-09-27T09:14:50.776Z,22.38
2023-09-27T09:17:20.734Z,22.30
2023-09-27T09:20:19.140Z,22.28
2023-09-27T09:22:47.222Z,22.22
2023-09-27T09:25:13.776Z,22.19
2023-09-27T09:27:42.841Z,22.20
2023-09-27T09:30:13.765Z,22.22
2023-09-27T09:32:52.001Z,22.22
2023-09-27T09:35:32.658Z,22.21
2023-09-27T09:38:00.331Z,22.19
2023-09-27T09:40:26.884Z,22.18
2023-09-27T09:42:53.538Z,22.21
2023-09-27T09:45:21.254Z,22.23
2023-09-27T09:47:47.871Z,22.23
2023-09-27T09:50:18.553Z,22.20
2023-09-27T09:52:59.361Z,22.24
2023-09-27T09:55:52.070Z,22.33
2023-09-27T09:58:24.264Z,22.39
2023-09-27T10:00:55.003Z,22.43
2023-09-27T10:03:23.614Z,22.44
2023-09-27T10:05:55.079Z,22.41
2023-09-27T10:08:21.722Z,22.40
2023-09-27T10:10:48.403Z,22.43
2023-09-27T10:13:15.428Z,22.43
2023-09-27T10:15:43.693Z,22.42
2023-09-27T10:18:22.650Z,22.44
2023-09-27T10:21:04.239Z,22.49
2023-09-27T10:23:34.894Z,22.45
2023-09-27T10:26:21.215Z,22.55
2023-09-27T10:29:05.938Z,22.49
2023-09-27T10:31:33.375Z,22.55
2023-09-27T10:34:00.523Z,22.60
2023-09-27T10:36:28.863Z,22.64
2023-09-27T10:38:55.360Z,22.60
2023-09-27T10:41:34.652Z,22.61
2023-09-27T10:44:03.240Z,22.57
2023-09-27T10:46:50.026Z,22.59
2023-09-27T10:49:25.927Z,22.58
2023-09-27T10:52:04.479Z,22.59
2023-09-27T10:54:34.828Z,22.61
2023-09-27T10:57:03.472Z,22.61
2023-09-27T10:59:30.845Z,22.65
2023-09-27T11:01:57.929Z,22.66
2023-09-27T11:04:25.845Z,22.68
2023-09-27T11:06:53.062Z,22.67
2023-09-27T11:09:20.698Z,22.69
2023-09-27T11:11:49.202Z,22.70
2023-09-27T11:14:35.145Z,22.72
2023-09-27T11:17:16.630Z,22.64
2023-09-27T11:19:43.203Z,22.59
2023-09-27T11:22:09.877Z,22.48
2023-09-27T11:24:42.727Z,22.43
2023-09-27T11:27:09.657Z,22.53
2023-09-27T11:29:37.043Z,22.51
2023-09-27T11:32:03.732Z,22.46
2023-09-27T11:34:31.324Z,22.47
2023-09-27T11:37:03.877Z,22.47
2023-09-27T11:39:51.670Z,22.48
2023-09-27T11:42:22.922Z,22.44
2023-09-27T11:45:10.944Z,22.51
2023-09-27T11:47:50.733Z,22.54
2023-09-27T11:50:18.775Z,22.49
2023-09-27T11:52:49.794Z,22.57
2023-09-27T11:55:17.865Z,22.63
2023-09-27T11:57:44.604Z,22.68
2023-09-27T12:00:16.553Z,22.58
2023-09-27T12:02:52.699Z,22.63
2023-09-27T12:05:22.912Z,22.68
2023-09-27T12:07:49.725Z,22.69
2023-09-27T12:10:17.301Z,22.69
2023-09-27T12:12:44.230Z,22.61
2023-09-27T12:15:11.635Z,22.57
2023-09-27T12:17:39.311Z,22.54
2023-09-27T12:20:09.220Z,22.55
2023-09-27T12:22:40.418Z,22.53
2023-09-27T12:25:07.840Z,22.52
2023-09-27T12:27:35.049Z,22.53
2023-09-27T12:30:02.061Z,22.55
2023-09-27T12:32:28.704Z,22.68
2023-09-27T12:34:55.361Z,22.70
2023-09-27T12:37:23.113Z,22.70
2023-09-27T12:39:49.831Z,22.59
2023-09-27T12:42:16.341Z,22.61
2023-09-27T12:44:42.913Z,22.64
2023-09-27T12:47:09.522Z,22.59
2023-09-27T12:49:36.978Z,22.65
2023-09-27T12:52:04.409Z,22.66
2023-09-27T12:54:31.107Z,22.79
2023-09-27T12:56:59.143Z,22.59
2023-09-27T12:59:27.852Z,22.63
2023-09-27T13:01:55.015Z,22.70
2023-09-27T13:04:21.798Z,22.80
2023-09-27T13:06:48.389Z,22.82
2023-09-27T13:09:18.375Z,22.84
2023-09-27T13:11:45.060Z,22.80
2023-09-27T13:14:11.866Z,22.81
2023-09-27T13:16:38.428Z,22.84
2023-09-27T13:19:05.025Z,22.87
2023-09-27T13:21:31.506Z,22.89
2023-09-27T13:23:58.021Z,22.89
2023-09-27T13:26:32.696Z,22.88
2023-09-27T13:28:59.438Z,22.88
2023-09-27T13:31:31.929Z,22.89
2023-09-27T13:34:09.508Z,22.90
2023-09-27T13:36:40.390Z,22.92
2023-09-27T13:39:07.481Z,22.94
2023-09-27T13:41:47.378Z,22.97
2023-09-27T13:44:14.503Z,22.98
2023-09-27T13:46:41.605Z,22.96
2023-09-27T13:49:08.796Z,23.00
2023-09-27T13:51:38.356Z,22.98
2023-09-27T13:54:06.199Z,22.84
2023-09-27T13:56:32.912Z,22.91
2023-09-27T13:59:00.387Z,22.93
2023-09-27T14:01:27.324Z,22.88
2023-09-27T14:03:54.052Z,22.88
2023-09-27T14:06:20.965Z,22.86
2023-09-27T14:08:50.739Z,22.83
2023-09-27T14:11:17.926Z,22.85
2023-09-27T14:13:46.497Z,22.80
2023-09-27T14:16:14.120Z,22.79
2023-09-27T14:18:41.784Z,22.84
2023-09-27T14:21:08.400Z,22.84
2023-09-27T14:23:37.869Z,22.82
2023-09-27T14:26:04.697Z,22.83
2023-09-27T14:28:31.203Z,22.82
2023-09-27T14:30:57.836Z,22.79
2023-09-27T14:33:24.851Z,22.81
2023-09-27T14:35:52.757Z,22.82
2023-09-27T14:38:19.811Z,22.83
2023-09-27T14:40:46.729Z,22.86
2023-09-27T14:43:13.567Z,22.83
2023-09-27T14:45:40.424Z,22.86
2023-09-27T14:48:07.316Z,22.86
2023-09-27T14:50:33.960Z,22.89
2023-09-27T14:53:00.794Z,22.90
2023-09-27T14:55:28.095Z,22.95
2023-09-27T14:57:54.901Z,22.94
2023-09-27T15:00:23.639Z,22.94
2023-09-27T15:02:51.220Z,22.95
2023-09-27T15:05:17.801Z,22.97
2023-09-27T15:07:44.363Z,22.97
2023-09-27T15:10:11.248Z,22.98
2023-09-27T15:12:39.041Z,22.99
2023-09-27T15:15:09.593Z,22.96
2023-09-27T15:17:45.571Z,23.01
2023-09-27T15:20:13.906Z,23.01
2023-09-27T15:22:42.112Z,22.97
2023-09-27T15:25:10.135Z,23.02
2023-09-27T15:27:36.696Z,23.04
2023-09-27T15:30:03.448Z,23.02
2023-09-27T15:32:30.285Z,23.03
2023-09-27T15:34:56.889Z,23.03
2023-09-27T15:37:23.700Z,23.03
2023-09-27T15:39:50.173Z,23.03
2023-09-27T15:42:16.614Z,23.02
2023-09-27T15:44:43.199Z,23.03
2023-09-27T15:47:13.051Z,23.03
2023-09-27T15:49:40.159Z,23.04
2023-09-27T15:52:06.828Z,23.02
2023-09-27T15:54:34.238Z,23.03
2023-09-27T15:57:01.050Z,23.05
2023-09-27T15:59:27.695Z,23.05
2023-09-27T16:01:57.433Z,23.06
2023-09-27T16:04:24.789Z,23.06
2023-09-27T16:06:53.008Z,23.05
2023-09-27T16:09:19.636Z,22.99
2023-09-27T16:11:46.488Z,22.97
2023-09-27T16:14:13.235Z,22.99
2023-09-27T16:16:39.863Z,22.95
2023-09-27T16:19:06.954Z,22.94
2023-09-27T16:21:33.489Z,22.95
2023-09-27T16:24:01.297Z,22.84
2023-09-27T16:26:28.216Z,22.84
2023-09-27T16:28:54.778Z,22.86
2023-09-27T16:31:21.818Z,22.81
2023-09-27T16:33:48.542Z,22.76
2023-09-27T16:36:18.445Z,22.75
2023-09-27T16:38:45.232Z,22.75
2023-09-27T16:41:11.753Z,22.73
2023-09-27T16:43:40.688Z,22.77
2023-09-27T16:46:08.482Z,22.72
2023-09-27T16:48:36.030Z,22.70
2023-09-27T16:51:02.975Z,22.64
2023-09-27T16:53:29.614Z,22.60
2023-09-27T16:55:56.309Z,22.63
2023-09-27T16:58:26.543Z,22.58
2023-09-27T17:00:53.271Z,22.66
2023-09-27T17:03:20.769Z,22.64
2023-09-27T17:05:47.697Z,22.64
2023-09-27T17:08:14.475Z,22.66
2023-09-27T17:10:41.436Z,22.65
2023-09-27T17:13:09.317Z,22.64
2023-09-27T17:15:35.833Z,22.65
2023-09-27T17:18:02.556Z,22.72
2023-09-27T17:20:29.135Z,22.69
2023-09-27T17:22:55.667Z,22.68
2023-09-27T17:25:22.366Z,22.70
2023-09-27T17:27:48.957Z,22.72
2023-09-27T17:30:16.658Z,22.68
2023-09-27T17:32:44.464Z,22.69
2023-09-27T17:35:11.332Z,22.70
2023-09-27T17:37:38.165Z,22.65
2023-09-27T17:40:09.057Z,22.70
2023-09-27T17:42:37.391Z,22.68
2023-09-27T17:45:04.411Z,22.56
2023-09-27T17:47:31.106Z,22.51
2023-09-27T17:49:57.724Z,22.52
2023-09-27T17:52:24.272Z,22.73
2023-09-27T17:54:50.795Z,22.73
2023-09-27T17:57:18.445Z,22.77
2023-09-27T17:59:46.523Z,22.63
2023-09-27T18:02:13.107Z,22.61
2023-09-27T18:07:06.598Z,22.61
2023-09-27T18:09:36.976Z,22.64
2023-09-27T18:12:03.752Z,22.63
2023-09-27T18:14:30.272Z,22.65
2023-09-27T18:16:56.979Z,22.68
2023-09-27T18:19:23.511Z,22.66
2023-09-27T18:21:50.206Z,22.65
2023-09-27T18:24:16.772Z,22.67
2023-09-27T18:26:44.765Z,22.66
2023-09-27T18:29:11.515Z,22.65
2023-09-27T18:31:40.027Z,22.66
2023-09-27T18:34:06.753Z,22.67
2023-09-27T18:36:34.240Z,22.65
2023-09-27T18:39:01.248Z,22.63
2023-09-27T18:41:28.483Z,22.66
2023-09-27T18:43:55.468Z,22.65
2023-09-27T18:46:24.512Z,22.64
2023-09-27T18:48:51.830Z,22.65
2023-09-27T18:51:22.349Z,22.65
2023-09-27T18:53:49.471Z,22.64
2023-09-27T18:56:16.074Z,22.67
2023-09-27T18:58:42.842Z,22.64
2023-09-27T19:01:09.451Z,22.65
2023-09-27T19:03:36.010Z,22.66
2023-09-27T19:06:02.557Z,22.67
2023-09-27T19:08:29.048Z,22.64
2023-09-27T19:10:56.317Z,22.68
2023-09-27T19:13:22.834Z,22.68
2023-09-27T19:15:49.542Z,22.70
2023-09-27T19:18:16.139Z,22.71
2023-09-27T19:20:42.682Z,22.68
2023-09-27T19:23:09.450Z,22.70
2023-09-27T19:25:35.999Z,22.68
2023-09-27T19:28:03.481Z,22.72
2023-09-27T19:30:31.927Z,22.70
2023-09-27T19:32:58.497Z,22.69
2023-09-27T19:35:25.122Z,22.68
2023-09-27T19:37:52.118Z,22.68
2023-09-27T19:40:18.836Z,22.69
2023-09-27T19:42:47.742Z,22.67
2023-09-27T19:45:14.427Z,22.68
2023-09-27T19:50:44.354Z,22.81
2023-09-27T19:53:10.952Z,22.76
2023-09-27T19:55:37.783Z,22.70
2023-09-27T19:58:04.503Z,22.73
2023-09-27T20:00:31.901Z,22.67
2023-09-27T20:02:58.496Z,22.69
2023-09-27T20:05:27.751Z,22.65
2023-09-27T20:07:54.265Z,22.68
2023-09-27T20:10:20.775Z,22.66
2023-09-27T20:12:47.267Z,22.67
2023-09-27T20:15:13.886Z,22.70
2023-09-27T20:17:40.839Z,22.70
2023-09-27T20:20:08.721Z,22.70
2023-09-27T20:22:35.260Z,22.89
2023-09-27T20:25:03.826Z,22.78
2023-09-27T20:27:30.356Z,22.74
2023-09-27T20:29:56.910Z,22.68
2023-09-27T20:32:23.571Z,22.65
2023-09-27T20:34:50.443Z,22.66
2023-09-27T20:37:17.388Z,22.65
2023-09-27T20:39:43.956Z,22.64
2023-09-27T20:42:10.460Z,22.65
2023-09-27T20:44:37.321Z,22.62
2023-09-27T20:47:03.873Z,22.59
2023-09-27T20:49:30.583Z,22.57
2023-09-27T20:51:57.189Z,22.58
2023-09-27T20:54:24.054Z,22.61
2023-09-27T20:56:51.538Z,22.62
2023-09-27T20:59:18.142Z,22.61
2023-09-27T21:01:45.801Z,22.62
2023-09-27T21:04:15.656Z,22.60
2023-09-27T21:06:43.119Z,22.63
2023-09-27T21:09:11.015Z,22.62
2023-09-27T21:11:37.549Z,22.60
2023-09-27T21:14:04.391Z,22.59
2023-09-27T21:16:32.630Z,22.58
2023-09-27T21:19:00.174Z,22.59
2023-09-27T21:21:26.651Z,22.60
2023-09-27T21:23:53.822Z,22.59
2023-09-27T21:26:20.729Z,22.59
2023-09-27T21:28:47.477Z,22.59
2023-09-27T21:31:17.221Z,22.62
2023-09-27T21:33:44.250Z,22.64
2023-09-27T21:36:11.446Z,22.60
2023-09-27T21:38:38.482Z,22.54
2023-09-27T21:41:05.327Z,22.60
2023-09-27T21:43:33.926Z,22.72
2023-09-27T21:46:01.444Z,22.72
2023-09-27T21:48:28.058Z,22.64
2023-09-27T21:50:54.674Z,22.82
2023-09-27T21:53:21.186Z,22.73
2023-09-27T21:55:47.702Z,22.63
2023-09-27T21:58:14.232Z,22.64
2023-09-27T22:00:40.736Z,22.62
2023-09-27T22:03:09.302Z,22.60
2023-09-27T22:05:36.072Z,22.64
2023-09-27T22:08:02.779Z,22.63
2023-09-27T22:10:43.515Z,22.63
2023-09-27T22:13:23.576Z,22.61
2023-09-27T22:15:54.787Z,22.64
2023-09-27T22:18:23.716Z,22.63
2023-09-27T22:20:50.632Z,22.59
2023-09-27T22:23:40.454Z,22.59
2023-09-27T22:26:17.016Z,22.62
2023-09-27T22:28:49.303Z,22.65
2023-09-27T22:31:27.813Z,22.64
2023-09-27T22:33:57.679Z,22.63
2023-09-27T22:36:27.523Z,22.64
2023-09-27T22:38:54.028Z,22.66
2023-09-27T22:41:21.514Z,22.65
2023-09-27T22:43:53.406Z,22.65
2023-09-27T22:46:23.004Z,22.64
2023-09-27T22:48:51.578Z,22.66
2023-09-27T22:51:18.340Z,22.65
2023-09-27T22:53:45.882Z,22.66
2023-09-27T22:56:12.497Z,22.66
2023-09-27T22:58:39.073Z,22.64
2023-09-27T23:01:21.810Z,22.65
2023-09-27T23:03:49.022Z,22.62
2023-09-27T23:06:16.446Z,22.63
2023-09-27T23:08:46.756Z,22.66
2023-09-27T23:11:13.630Z,22.65
2023-09-27T23:13:49.662Z,22.64
2023-09-27T23:16:34.467Z,22.64
2023-09-27T23:19:05.619Z,22.65
2023-09-27T23:21:33.412Z,22.65
2023-09-27T23:24:26.575Z,22.65
2023-09-27T23:26:53.378Z,22.65
2023-09-27T23:29:30.088Z,22.65
2023-09-27T23:32:00.078Z,22.65
2023-09-27T23:34:28.172Z,22.68
2023-09-27T23:37:10.032Z,22.64
2023-09-27T23:39:45.705Z,22.67
2023-09-27T23:42:28.795Z,22.66
2023-09-27T23:45:09.241Z,22.67
2023-09-27T23:47:44.232Z,22.73
2023-09-27T23:50:12.453Z,22.73
2023-09-27T23:52:42.248Z,22.72
2023-09-27T23:55:09.863Z,22.74
2023-09-27T23:57:37.069Z,22.74
